createdAt,value
2023-02-22T00:01:35.478Z,10.47
2023-02-22T00:04:42.067Z,9.23
2023-02-22T00:07:50.837Z,10.23
2023-02-22T00:10:53.533Z,15.90
2023-02-22T00:13:59.116Z,13.25
2023-02-22T00:17:02.561Z,12.90
2023-02-22T00:20:08.461Z,10.57
2023-02-22T00:23:20.963Z,11.13
2023-02-22T00:26:23.850Z,10.98
2023-02-22T00:29:26.808Z,9.68
2023-02-22T00:32:29.685Z,9.67
2023-02-22T00:35:34.125Z,48.50
2023-02-22T00:38:37.393Z,24.45
2023-02-22T00:41:40.208Z,15.60
2023-02-22T00:44:43.200Z,9.18
2023-02-22T00:47:48.805Z,11.57
2023-02-22T00:50:55.222Z,11.60
2023-02-22T00:54:08.788Z,12.60
2023-02-22T00:57:12.442Z,13.05
2023-02-22T01:00:42.936Z,13.82
2023-02-22T01:03:47.697Z,11.03
2023-02-22T01:06:54.423Z,12.10
2023-02-22T01:09:57.747Z,11.10
2023-02-22T01:13:01.409Z,10.77
2023-02-22T01:16:11.567Z,16.08
2023-02-22T01:19:14.407Z,13.30
2023-02-22T01:22:17.092Z,13.87
2023-02-22T01:25:23.020Z,16.65
2023-02-22T01:28:25.592Z,10.80
2023-02-22T01:31:28.235Z,13.32
2023-02-22T01:34:33.942Z,9.90
2023-02-22T01:37:37.852Z,10.23
2023-02-22T01:40:48.179Z,11.32
2023-02-22T01:43:50.825Z,10.57
2023-02-22T01:46:55.784Z,12.18
2023-02-22T01:50:04.416Z,11.07
2023-02-22T01:53:15.135Z,9.40
2023-02-22T01:56:19.106Z,10.32
2023-02-22T01:59:22.203Z,11.27
2023-02-22T02:02:25.538Z,12.40
2023-02-22T02:05:31.912Z,11.00
2023-02-22T02:08:53.443Z,11.93
2023-02-22T02:11:56.819Z,12.15
2023-02-22T02:15:21.213Z,15.02
2023-02-22T02:18:24.885Z,12.43
2023-02-22T02:21:55.884Z,13.57
2023-02-22T02:25:05.314Z,11.77
2023-02-22T02:28:39.556Z,12.73
2023-02-22T02:32:16.075Z,11.93
2023-02-22T02:35:56.088Z,12.88
2023-02-22T02:39:16.957Z,14.63
2023-02-22T02:42:24.762Z,13.70
2023-02-22T02:45:45.778Z,13.00
2023-02-22T02:48:57.018Z,11.65
2023-02-22T02:52:02.909Z,14.82
2023-02-22T02:55:09.315Z,13.77
2023-02-22T02:58:21.203Z,13.43
2023-02-22T03:01:54.303Z,14.05
2023-02-22T03:05:20.132Z,14.95
2023-02-22T03:08:43.355Z,17.05
2023-02-22T03:11:53.537Z,15.83
2023-02-22T03:15:26.663Z,19.60
2023-02-22T03:18:48.051Z,15.60
2023-02-22T03:22:28.268Z,18.42
2023-02-22T03:25:37.583Z,16.80
2023-02-22T03:28:42.845Z,15.70
2023-02-22T03:31:53.704Z,16.87
2023-02-22T03:35:09.833Z,14.18
2023-02-22T03:38:15.721Z,14.30
2023-02-22T03:41:24.193Z,13.10
2023-02-22T03:44:32.352Z,10.40
2023-02-22T03:47:42.918Z,12.37
2023-02-22T03:50:45.836Z,11.75
2023-02-22T03:53:52.351Z,15.98
2023-02-22T03:57:18.250Z,13.55
2023-02-22T04:00:25.364Z,13.07
2023-02-22T04:03:27.979Z,13.53
2023-02-22T04:06:31.263Z,14.73
2023-02-22T04:09:38.157Z,14.52
2023-02-22T04:12:43.942Z,15.68
2023-02-22T04:15:46.610Z,17.47
2023-02-22T04:18:51.287Z,20.17
2023-02-22T04:21:55.872Z,16.27
2023-02-22T04:25:01.189Z,17.20
2023-02-22T04:28:04.207Z,22.05
2023-02-22T04:31:14.254Z,19.43
2023-02-22T04:34:17.244Z,21.27
2023-02-22T04:37:20.118Z,20.10
2023-02-22T04:40:22.859Z,20.05
2023-02-22T04:43:25.644Z,19.63
2023-02-22T04:46:32.944Z,18.03
2023-02-22T04:49:38.052Z,20.27
2023-02-22T04:52:41.586Z,22.80
2023-02-22T04:55:49.626Z,24.60
2023-02-22T04:58:52.990Z,19.40
2023-02-22T05:01:55.648Z,17.40
2023-02-22T05:04:58.324Z,17.87
2023-02-22T05:08:01.078Z,14.77
2023-02-22T05:11:05.239Z,15.38
2023-02-22T05:14:07.969Z,15.85
2023-02-22T05:17:13.581Z,13.73
2023-02-22T05:20:36.796Z,15.93
2023-02-22T05:23:39.555Z,15.43
2023-02-22T05:26:45.624Z,15.95
2023-02-22T05:29:48.191Z,14.35
2023-02-22T05:32:52.360Z,17.87
2023-02-22T05:35:58.015Z,16.17
2023-02-22T05:39:00.641Z,17.13
2023-02-22T05:42:04.853Z,17.48
2023-02-22T05:45:19.094Z,20.45
2023-02-22T05:48:22.697Z,21.33
2023-02-22T05:51:27.779Z,22.97
2023-02-22T05:54:30.292Z,24.30
2023-02-22T05:57:32.786Z,50.00
2023-02-22T06:00:40.705Z,31.95
2023-02-22T06:03:43.308Z,25.80
2023-02-22T06:06:46.007Z,18.43
2023-02-22T06:09:51.719Z,21.60
2023-02-22T06:12:55.347Z,16.90
2023-02-22T06:16:00.045Z,17.83
2023-02-22T06:19:03.015Z,17.87
2023-02-22T06:22:05.614Z,19.00
2023-02-22T06:25:09.710Z,27.55
2023-02-22T06:28:12.304Z,23.30
2023-02-22T06:31:15.718Z,26.75
2023-02-22T06:34:18.975Z,28.87
2023-02-22T06:37:22.017Z,22.53
2023-02-22T06:40:29.527Z,19.80
2023-02-22T06:43:32.217Z,18.00
2023-02-22T06:46:35.265Z,17.83
2023-02-22T06:49:37.896Z,27.57
2023-02-22T06:52:48.043Z,28.97
2023-02-22T06:55:53.296Z,25.13
2023-02-22T06:59:23.666Z,20.33
2023-02-22T07:02:34.809Z,20.42
2023-02-22T07:05:38.437Z,18.93
2023-02-22T07:08:50.710Z,19.27
2023-02-22T07:11:58.910Z,19.60
2023-02-22T07:15:01.779Z,23.42
2023-02-22T07:18:05.014Z,21.20
2023-02-22T07:21:10.858Z,20.83
2023-02-22T07:24:13.462Z,21.03
2023-02-22T07:27:16.118Z,18.35
2023-02-22T07:30:25.476Z,19.00
2023-02-22T07:33:29.495Z,18.92
2023-02-22T07:36:32.125Z,14.77
2023-02-22T07:39:42.240Z,13.03
2023-02-22T07:43:14.399Z,15.65
2023-02-22T07:46:17.008Z,12.05
2023-02-22T07:49:19.637Z,14.27
2023-02-22T07:52:22.663Z,13.17
2023-02-22T07:55:28.048Z,17.17
2023-02-22T07:58:31.460Z,14.95
2023-02-22T08:01:35.287Z,14.70
2023-02-22T08:04:42.631Z,14.45
2023-02-22T08:07:45.379Z,11.93
2023-02-22T08:10:49.706Z,16.17
2023-02-22T08:13:52.441Z,14.00
2023-02-22T08:16:54.997Z,13.77
2023-02-22T08:19:58.304Z,13.25
2023-02-22T08:23:01.750Z,13.13
2023-02-22T08:26:09.581Z,11.60
2023-02-22T08:29:14.850Z,10.80
2023-02-22T08:32:19.676Z,13.50
2023-02-22T08:35:23.311Z,12.55
2023-02-22T08:38:29.788Z,11.70
2023-02-22T08:41:35.260Z,13.33
2023-02-22T08:44:39.223Z,12.98
2023-02-22T08:47:42.170Z,11.38
2023-02-22T08:50:44.806Z,13.20
2023-02-22T08:53:47.458Z,11.77
2023-02-22T08:56:50.276Z,12.50
2023-02-22T08:59:53.544Z,12.68
2023-02-22T09:02:56.291Z,11.00
2023-02-22T09:05:59.767Z,10.50
2023-02-22T09:09:05.113Z,10.40
2023-02-22T09:12:07.999Z,9.80
2023-02-22T09:15:11.596Z,12.55
2023-02-22T09:18:14.840Z,13.45
2023-02-22T09:21:20.663Z,11.43
2023-02-22T09:24:23.418Z,13.33
2023-02-22T09:27:28.386Z,10.47
2023-02-22T09:30:38.520Z,11.13
2023-02-22T09:33:42.044Z,9.27
2023-02-22T09:36:48.221Z,8.85
2023-02-22T09:39:51.464Z,8.50
2023-02-22T09:43:02.416Z,10.93
2023-02-22T09:50:22.569Z,11.98
2023-02-22T09:53:42.284Z,11.13
2023-02-22T09:56:48.892Z,9.53
2023-02-22T10:00:16.173Z,9.50
2023-02-22T10:03:47.599Z,8.65
2023-02-22T10:07:20.655Z,8.48
2023-02-22T10:10:34.200Z,10.00
2023-02-22T10:13:55.655Z,10.87
2023-02-22T10:17:19.849Z,9.77
2023-02-22T10:21:02.523Z,10.45
2023-02-22T10:24:31.240Z,8.95
2023-02-22T10:27:41.092Z,8.23
2023-02-22T10:30:54.806Z,11.37
2023-02-22T10:34:07.428Z,9.67
2023-02-22T10:37:33.994Z,12.00
2023-02-22T10:40:45.268Z,7.70
2023-02-22T10:43:47.837Z,9.20
2023-02-22T10:46:53.560Z,11.40
2023-02-22T10:49:58.781Z,8.53
2023-02-22T10:53:01.318Z,7.53
2023-02-22T10:56:19.172Z,8.80
2023-02-22T10:59:28.190Z,9.98
2023-02-22T11:02:36.029Z,9.43
2023-02-22T11:05:40.889Z,8.17
2023-02-22T11:08:43.800Z,9.07
2023-02-22T11:11:48.258Z,9.68
2023-02-22T11:14:53.712Z,7.40
2023-02-22T11:18:02.159Z,10.93
2023-02-22T11:21:10.373Z,11.37
2023-02-22T11:24:14.671Z,7.82
2023-02-22T11:27:40.366Z,10.15
2023-02-22T11:30:44.741Z,9.07
2023-02-22T11:33:58.782Z,7.53
2023-02-22T11:37:30.904Z,7.27
2023-02-22T11:40:35.717Z,8.98
2023-02-22T11:43:38.336Z,8.85
2023-02-22T11:46:44.967Z,8.73
2023-02-22T11:49:55.651Z,9.53
2023-02-22T11:53:18.152Z,15.20
2023-02-22T11:56:37.782Z,12.38
2023-02-22T12:00:16.441Z,9.75
2023-02-22T12:04:09.486Z,9.93
2023-02-22T12:07:22.589Z,9.73
2023-02-22T12:10:58.847Z,9.27
2023-02-22T12:14:08.984Z,7.45
2023-02-22T12:17:23.921Z,8.32
2023-02-22T12:20:40.175Z,8.10
2023-02-22T12:24:39.157Z,9.33
2023-02-22T12:27:50.011Z,12.33
2023-02-22T12:31:12.311Z,9.85
2023-02-22T12:34:36.737Z,7.75
2023-02-22T12:38:01.023Z,11.68
2023-02-22T12:41:27.086Z,9.20
2023-02-22T12:44:37.162Z,8.30
2023-02-22T12:48:18.759Z,9.00
2023-02-22T12:51:36.775Z,7.55
2023-02-22T12:54:59.525Z,8.63
2023-02-22T12:58:46.939Z,6.63
2023-02-22T13:02:04.005Z,8.23
2023-02-22T13:05:18.156Z,11.20
2023-02-22T13:08:29.512Z,8.50
2023-02-22T13:11:46.841Z,8.18
2023-02-22T13:15:43.564Z,9.07
2023-02-22T13:19:18.131Z,9.33
2023-02-22T13:22:46.893Z,10.25
2023-02-22T13:25:58.991Z,10.90
2023-02-22T13:29:30.178Z,9.98
2023-02-22T13:32:56.301Z,12.87
2023-02-22T13:36:31.372Z,16.97
2023-02-22T13:39:56.541Z,40.65
2023-02-22T13:43:43.797Z,24.90
2023-02-22T13:47:06.786Z,11.13
2023-02-22T13:50:32.516Z,37.57
2023-02-22T13:53:55.533Z,28.13
2023-02-22T13:57:03.348Z,21.25
2023-02-22T14:00:15.153Z,13.73
2023-02-22T14:03:50.593Z,17.48
2023-02-22T14:06:57.471Z,9.10
2023-02-22T14:10:03.073Z,9.23
2023-02-22T14:13:07.897Z,9.02
2023-02-22T14:16:13.138Z,9.23
2023-02-22T14:19:24.206Z,8.77
2023-02-22T14:22:33.719Z,8.77
2023-02-22T14:25:46.166Z,8.77
2023-02-22T14:28:54.599Z,9.50
2023-02-22T14:32:21.155Z,11.27
2023-02-22T14:35:54.001Z,9.30
2023-02-22T14:39:24.476Z,10.03
2023-02-22T14:42:34.929Z,15.10
2023-02-22T14:45:45.620Z,13.50
2023-02-22T14:48:52.921Z,12.73
2023-02-22T14:52:04.136Z,21.80
2023-02-22T14:55:22.298Z,11.57
2023-02-22T14:58:32.302Z,12.13
2023-02-22T15:01:52.733Z,10.18
2023-02-22T15:04:58.198Z,10.60
2023-02-22T15:08:03.294Z,12.75
2023-02-22T15:11:08.311Z,13.67
2023-02-22T15:14:27.058Z,28.97
2023-02-22T15:17:29.827Z,15.52
2023-02-22T15:20:36.936Z,17.77
2023-02-22T15:23:54.597Z,11.43
2023-02-22T15:27:06.091Z,18.33
2023-02-22T15:30:17.819Z,19.90
2023-02-22T15:33:27.007Z,11.50
2023-02-22T15:36:32.385Z,10.70
2023-02-22T15:39:34.931Z,11.02
2023-02-22T15:42:48.786Z,12.40
2023-02-22T15:45:52.257Z,12.60
2023-02-22T15:49:29.065Z,10.68
2023-02-22T15:52:34.507Z,10.63
2023-02-22T15:55:43.188Z,11.95
2023-02-22T15:58:47.731Z,12.90
2023-02-22T16:01:53.471Z,11.13
2023-02-22T16:05:06.764Z,12.23
2023-02-22T16:08:45.806Z,13.05
2023-02-22T16:12:29.953Z,12.82
2023-02-22T16:15:33.447Z,14.67
2023-02-22T16:18:38.718Z,13.70
2023-02-22T16:22:03.023Z,15.05
2023-02-22T16:25:25.304Z,16.38
2023-02-22T16:28:31.042Z,14.07
2023-02-22T16:31:38.539Z,18.60
2023-02-22T16:34:43.570Z,18.50
2023-02-22T16:37:48.864Z,21.63
2023-02-22T16:40:58.331Z,20.17
2023-02-22T16:44:02.318Z,21.17
2023-02-22T16:47:05.005Z,20.13
2023-02-22T16:50:07.939Z,11.83
2023-02-22T16:53:10.970Z,15.10
2023-02-22T16:56:16.414Z,17.83
2023-02-22T16:59:24.139Z,20.52
2023-02-22T17:02:28.950Z,31.30
2023-02-22T17:05:38.346Z,17.57
2023-02-22T17:08:43.503Z,17.10
2023-02-22T17:11:50.951Z,18.27
2023-02-22T17:14:56.915Z,16.80
2023-02-22T17:18:11.433Z,19.47
2023-02-22T17:21:14.147Z,19.23
2023-02-22T17:24:24.618Z,20.70
2023-02-22T17:27:27.978Z,28.27
2023-02-22T17:30:35.964Z,29.13
2023-02-22T17:33:39.006Z,26.73
2023-02-22T17:36:45.240Z,23.30
2023-02-22T17:39:48.789Z,22.20
2023-02-22T17:42:55.229Z,27.20
2023-02-22T17:45:58.100Z,24.50
2023-02-22T17:49:01.947Z,29.73
2023-02-22T17:52:09.536Z,25.77
2023-02-22T17:55:13.098Z,25.42
2023-02-22T17:58:15.815Z,22.77
2023-02-22T18:01:27.187Z,23.60
2023-02-22T18:04:34.956Z,24.47
2023-02-22T18:07:37.741Z,22.30
2023-02-22T18:10:42.480Z,19.90
2023-02-22T18:13:45.215Z,22.83
2023-02-22T18:16:48.092Z,40.00
2023-02-22T18:19:50.975Z,42.07
2023-02-22T18:22:53.786Z,39.70
2023-02-22T18:26:10.675Z,42.38
2023-02-22T18:29:15.938Z,42.70
2023-02-22T18:32:19.763Z,46.55
2023-02-22T18:35:22.552Z,44.37
2023-02-22T18:38:25.745Z,40.17
2023-02-22T18:41:31.486Z,71.13
2023-02-22T18:44:34.284Z,59.47
2023-02-22T18:47:44.182Z,76.85
2023-02-22T18:50:46.942Z,65.20
2023-02-22T18:53:50.240Z,65.73
2023-02-22T18:56:52.981Z,54.13
2023-02-22T18:59:59.845Z,52.10
2023-02-22T19:03:02.421Z,49.45
2023-02-22T19:06:10.530Z,51.33
2023-02-22T19:09:14.280Z,50.10
2023-02-22T19:12:18.984Z,68.80
2023-02-22T19:15:21.882Z,55.88
2023-02-22T19:18:25.164Z,43.15
2023-02-22T19:21:30.001Z,44.63
2023-02-22T19:24:39.946Z,49.43
2023-02-22T19:27:44.484Z,48.42
2023-02-22T19:30:47.438Z,44.33
2023-02-22T19:33:55.346Z,40.33
2023-02-22T19:37:00.808Z,52.73
2023-02-22T19:40:07.077Z,59.53
2023-02-22T19:43:11.536Z,55.30
2023-02-22T19:46:17.961Z,41.97
2023-02-22T19:49:20.826Z,40.00
2023-02-22T19:52:23.599Z,50.57
2023-02-22T19:55:32.392Z,46.77
2023-02-22T19:58:39.495Z,35.80
2023-02-22T20:01:44.569Z,36.88
2023-02-22T20:04:50.210Z,53.00
2023-02-22T20:07:52.933Z,53.33
2023-02-22T20:10:58.623Z,307.87
2023-02-22T20:14:02.018Z,109.32
2023-02-22T20:17:07.110Z,110.43
2023-02-22T20:20:10.122Z,67.32
2023-02-22T20:23:12.953Z,67.27
2023-02-22T20:26:18.039Z,73.70
2023-02-22T20:29:26.508Z,92.18
2023-02-22T20:32:31.850Z,106.82
2023-02-22T20:35:34.683Z,140.40
2023-02-22T20:38:37.997Z,90.60
2023-02-22T20:41:43.313Z,46.40
2023-02-22T20:44:46.078Z,92.63
2023-02-22T20:47:51.987Z,89.75
2023-02-22T20:50:54.765Z,77.25
2023-02-22T20:54:00.166Z,54.97
2023-02-22T20:57:06.807Z,75.30
2023-02-22T21:00:10.695Z,69.20
2023-02-22T21:03:13.606Z,64.00
2023-02-22T21:06:18.654Z,68.90
2023-02-22T21:09:21.824Z,68.30
2023-02-22T21:12:24.694Z,60.27
2023-02-22T21:15:27.514Z,102.20
2023-02-22T21:18:30.314Z,87.75
2023-02-22T21:21:36.390Z,75.78
2023-02-22T21:24:39.474Z,59.90
2023-02-22T21:27:43.295Z,44.73
2023-02-22T21:30:47.456Z,47.13
2023-02-22T21:33:52.162Z,51.67
2023-02-22T21:36:54.946Z,42.05
2023-02-22T21:40:00.808Z,41.87
2023-02-22T21:43:03.589Z,43.20
2023-02-22T21:46:08.046Z,36.33
2023-02-22T21:49:11.438Z,35.03
2023-02-22T21:52:14.336Z,32.75
2023-02-22T21:55:19.378Z,32.23
2023-02-22T21:58:22.648Z,37.60
2023-02-22T22:01:29.938Z,45.15
2023-02-22T22:04:35.108Z,47.70
2023-02-22T22:07:37.650Z,52.03
2023-02-22T22:10:40.255Z,51.83
2023-02-22T22:13:46.124Z,59.93
2023-02-22T22:16:59.550Z,59.72
2023-02-22T22:20:04.610Z,47.05
2023-02-22T22:23:10.031Z,44.60
2023-02-22T22:26:14.566Z,52.60
2023-02-22T22:29:18.771Z,61.80
2023-02-22T22:32:21.681Z,62.90
2023-02-22T22:35:29.699Z,62.10
2023-02-22T22:38:33.592Z,66.53
2023-02-22T22:41:36.658Z,66.20
2023-02-22T22:44:42.374Z,75.37
2023-02-22T22:47:46.186Z,72.03
2023-02-22T22:51:06.699Z,70.20
2023-02-22T22:54:10.488Z,66.03
2023-02-22T22:57:13.264Z,72.43
2023-02-22T23:00:31.308Z,77.70
2023-02-22T23:03:36.985Z,66.68
2023-02-22T23:06:55.225Z,69.18
2023-02-22T23:09:57.879Z,65.60
2023-02-22T23:13:00.412Z,65.83
2023-02-22T23:16:03.169Z,71.67
2023-02-22T23:19:08.077Z,69.43
2023-02-22T23:22:17.630Z,61.13
2023-02-22T23:25:21.906Z,56.80
2023-02-22T23:28:24.537Z,63.20
2023-02-22T23:31:32.105Z,54.63
2023-02-22T23:34:36.058Z,62.40
2023-02-22T23:37:39.982Z,61.65
2023-02-22T23:40:44.857Z,49.47
2023-02-22T23:43:47.487Z,50.23
2023-02-22T23:46:55.491Z,57.57
2023-02-22T23:49:59.073Z,56.28
2023-02-22T23:53:03.811Z,62.60
2023-02-22T23:56:17.959Z,60.00
2023-02-22T23:59:20.534Z,63.53
